Aviation Digital Data Service (ADDS)

Output produced by METARs form (2001 UTC 17 November 2019)
found at http://www.aviationweather.gov/metar/data/
 
METAR text: RJTT 171930Z 32006KT 270V350 9999 FEW030 BKN035 13/05 Q1023 NOSIG RMK 1CU030 7SC035 A3021
Conditions at: RJTT (TOKYO INTL AIRPO, JP) observed 1930 UTC 17 November 2019
Temperature: 13.0°C (55°F)
Dewpoint: 5.0°C (41°F) [RH = 58%]
Pressure (altimeter): 30.21 inches Hg (1023.0 mb)
Winds: from the NW (320 degrees) at 7 MPH (6 knots; 3.1 m/s)
Visibility: 6 or more miles (10+ km)
Ceiling: 3500 feet AGL
Clouds: few clouds at 3000 feet AGL
broken clouds at 3500 feet AGL
Weather: no significant weather observed at this time

METAR text: RJTT 171900Z 36006KT 9999 FEW030 BKN045 14/07 Q1023 NOSIG RMK 1CU030 7SC045 A3022
Conditions at: RJTT (TOKYO INTL AIRPO, JP) observed 1900 UTC 17 November 2019
Temperature: 14.0°C (57°F)
Dewpoint: 7.0°C (45°F) [RH = 63%]
Pressure (altimeter): 30.21 inches Hg (1023.0 mb)
Winds: from the N (360 degrees) at 7 MPH (6 knots; 3.1 m/s)
Visibility: 6 or more miles (10+ km)
Ceiling: 4500 feet AGL
Clouds: few clouds at 3000 feet AGL
broken clouds at 4500 feet AGL
Weather: no significant weather observed at this time

METAR text: RJTT 171830Z 01005KT 9999 FEW030 BKN045 14/07 Q1024 NOSIG RMK 1CU030 7SC045 A3024
Conditions at: RJTT (TOKYO INTL AIRPO, JP) observed 1830 UTC 17 November 2019
Temperature: 14.0°C (57°F)
Dewpoint: 7.0°C (45°F) [RH = 63%]
Pressure (altimeter): 30.24 inches Hg (1024.0 mb)
Winds: from the N (10 degrees) at 6 MPH (5 knots; 2.6 m/s)
Visibility: 6 or more miles (10+ km)
Ceiling: 4500 feet AGL
Clouds: few clouds at 3000 feet AGL
broken clouds at 4500 feet AGL
Weather: no significant weather observed at this time

METAR text: RJTT 171800Z 01007KT 9999 FEW030 BKN045 14/07 Q1024 NOSIG RMK 1CU030 7SC045 A3026
Conditions at: RJTT (TOKYO INTL AIRPO, JP) observed 1800 UTC 17 November 2019
Temperature: 14.0°C (57°F)
Dewpoint: 7.0°C (45°F) [RH = 63%]
Pressure (altimeter): 30.24 inches Hg (1024.0 mb)
Winds: from the N (10 degrees) at 8 MPH (7 knots; 3.6 m/s)
Visibility: 6 or more miles (10+ km)
Ceiling: 4500 feet AGL
Clouds: few clouds at 3000 feet AGL
broken clouds at 4500 feet AGL
Weather: no significant weather observed at this time

METAR text: RJTT 171730Z 01006KT 9999 FEW030 BKN050 14/07 Q1025 NOSIG RMK 1CU030 7SC050 A3027
Conditions at: RJTT (TOKYO INTL AIRPO, JP) observed 1730 UTC 17 November 2019
Temperature: 14.0°C (57°F)
Dewpoint: 7.0°C (45°F) [RH = 63%]
Pressure (altimeter): 30.27 inches Hg (1025.0 mb)
Winds: from the N (10 degrees) at 7 MPH (6 knots; 3.1 m/s)
Visibility: 6 or more miles (10+ km)
Ceiling: 5000 feet AGL
Clouds: few clouds at 3000 feet AGL
broken clouds at 5000 feet AGL
Weather: no significant weather observed at this time

METAR text: RJTT 171700Z 36008KT 9999 FEW030 BKN045 14/08 Q1025 NOSIG RMK 1CU030 7SC045 A3029
Conditions at: RJTT (TOKYO INTL AIRPO, JP) observed 1700 UTC 17 November 2019
Temperature: 14.0°C (57°F)
Dewpoint: 8.0°C (46°F) [RH = 67%]
Pressure (altimeter): 30.27 inches Hg (1025.0 mb)
Winds: from the N (360 degrees) at 9 MPH (8 knots; 4.1 m/s)
Visibility: 6 or more miles (10+ km)
Ceiling: 4500 feet AGL
Clouds: few clouds at 3000 feet AGL
broken clouds at 4500 feet AGL
Weather: no significant weather observed at this time

METAR text: RJTT 171630Z 04008KT 020V090 9999 FEW030 SCT045 BKN/// 14/08 Q1026 NOSIG RMK 1CU030 3SC045 A3030
Conditions at: RJTT (TOKYO INTL AIRPO, JP) observed 1630 UTC 17 November 2019
Temperature: 14.0°C (57°F)
Dewpoint: 8.0°C (46°F) [RH = 67%]
Pressure (altimeter): 30.30 inches Hg (1026.0 mb)
Winds: from the NE (40 degrees) at 9 MPH (8 knots; 4.1 m/s)
Visibility: 6 or more miles (10+ km)
Ceiling: at least 12,000 feet AGL
Clouds: few clouds at 3000 feet AGL
scattered clouds at 4500 feet AGL
Weather: no significant weather observed at this time

METAR text: RJTT 171600Z 07008KT 9999 FEW030 BKN/// 15/09 Q1025 BECMG 04006KT RMK 1CU030 A3029
Conditions at: RJTT (TOKYO INTL AIRPO, JP) observed 1600 UTC 17 November 2019
Temperature: 15.0°C (59°F)
Dewpoint: 9.0°C (48°F) [RH = 67%]
Pressure (altimeter): 30.27 inches Hg (1025.0 mb)
Winds: from the ENE (70 degrees) at 9 MPH (8 knots; 4.1 m/s)
Visibility: 6 or more miles (10+ km)
Ceiling: at least 12,000 feet AGL
Clouds: few clouds at 3000 feet AGL
Weather: no significant weather observed at this time

METAR text: RJTT 171530Z 09009KT 9999 FEW030 BKN/// 15/07 Q1025 NOSIG RMK 1CU030 A3028
Conditions at: RJTT (TOKYO INTL AIRPO, JP) observed 1530 UTC 17 November 2019
Temperature: 15.0°C (59°F)
Dewpoint: 7.0°C (45°F) [RH = 59%]
Pressure (altimeter): 30.27 inches Hg (1025.0 mb)
Winds: from the E (90 degrees) at 10 MPH (9 knots; 4.6 m/s)
Visibility: 6 or more miles (10+ km)
Ceiling: at least 12,000 feet AGL
Clouds: few clouds at 3000 feet AGL
Weather: no significant weather observed at this time

METAR text: RJTT 171500Z 10009KT 9999 FEW030 BKN/// 15/08 Q1026 NOSIG RMK 1CU030 A3030
Conditions at: RJTT (TOKYO INTL AIRPO, JP) observed 1500 UTC 17 November 2019
Temperature: 15.0°C (59°F)
Dewpoint: 8.0°C (46°F) [RH = 63%]
Pressure (altimeter): 30.30 inches Hg (1026.0 mb)
Winds: from the E (100 degrees) at 10 MPH (9 knots; 4.6 m/s)
Visibility: 6 or more miles (10+ km)
Ceiling: at least 12,000 feet AGL
Clouds: few clouds at 3000 feet AGL
Weather: no significant weather observed at this time

METAR text: RJTT 171430Z 10006KT 9999 FEW030 BKN/// 15/09 Q1026 NOSIG RMK 1CU030 A3031
Conditions at: RJTT (TOKYO INTL AIRPO, JP) observed 1430 UTC 17 November 2019
Temperature: 15.0°C (59°F)
Dewpoint: 9.0°C (48°F) [RH = 67%]
Pressure (altimeter): 30.30 inches Hg (1026.0 mb)
Winds: from the E (100 degrees) at 7 MPH (6 knots; 3.1 m/s)
Visibility: 6 or more miles (10+ km)
Ceiling: at least 12,000 feet AGL
Clouds: few clouds at 3000 feet AGL
Weather: no significant weather observed at this time

METAR text: RJTT 171400Z 10008KT 9999 FEW030 BKN/// 15/08 Q1026 NOSIG RMK 1CU030 A3032
Conditions at: RJTT (TOKYO INTL AIRPO, JP) observed 1400 UTC 17 November 2019
Temperature: 15.0°C (59°F)
Dewpoint: 8.0°C (46°F) [RH = 63%]
Pressure (altimeter): 30.30 inches Hg (1026.0 mb)
Winds: from the E (100 degrees) at 9 MPH (8 knots; 4.1 m/s)
Visibility: 6 or more miles (10+ km)
Ceiling: at least 12,000 feet AGL
Clouds: few clouds at 3000 feet AGL
Weather: no significant weather observed at this time

METAR text: RJTT 171349Z 10010KT 9999 FEW030 SCT140 BKN/// 15/09 Q1026 RMK 1CU030 3AC140 A3031
Conditions at: RJTT (TOKYO INTL AIRPO, JP) observed 1349 UTC 17 November 2019
Temperature: 15.0°C (59°F)
Dewpoint: 9.0°C (48°F) [RH = 67%]
Pressure (altimeter): 30.30 inches Hg (1026.0 mb)
Winds: from the E (100 degrees) at 12 MPH (10 knots; 5.1 m/s)
Visibility: 6 or more miles (10+ km)
Ceiling: at least 12,000 feet AGL
Clouds: few clouds at 3000 feet AGL
scattered clouds at 14000 feet AGL
Weather: no significant weather observed at this time

METAR text: RJTT 171330Z 01004KT 300V100 9999 FEW030 SCT140 BKN/// 13/04 Q1026 BECMG TL1400 08010KT RMK 1CU030 3AC140 A3032
Conditions at: RJTT (TOKYO INTL AIRPO, JP) observed 1330 UTC 17 November 2019
Temperature: 13.0°C (55°F)
Dewpoint: 4.0°C (39°F) [RH = 54%]
Pressure (altimeter): 30.30 inches Hg (1026.0 mb)
Winds: from the N (10 degrees) at 5 MPH (4 knots; 2.1 m/s)
Visibility: 6 or more miles (10+ km)
Ceiling: at least 12,000 feet AGL
Clouds: few clouds at 3000 feet AGL
scattered clouds at 14000 feet AGL
Weather: no significant weather observed at this time

METAR text: RJTT 171300Z 02006KT 9999 FEW030 SCT140 BKN/// 14/05 Q1026 BECMG 08010KT RMK 1CU030 4AC140 A3032
Conditions at: RJTT (TOKYO INTL AIRPO, JP) observed 1300 UTC 17 November 2019
Temperature: 14.0°C (57°F)
Dewpoint: 5.0°C (41°F) [RH = 55%]
Pressure (altimeter): 30.30 inches Hg (1026.0 mb)
Winds: from the NNE (20 degrees) at 7 MPH (6 knots; 3.1 m/s)
Visibility: 6 or more miles (10+ km)
Ceiling: at least 12,000 feet AGL
Clouds: few clouds at 3000 feet AGL
scattered clouds at 14000 feet AGL
Weather: no significant weather observed at this time

METAR text: RJTT 171230Z 33005KT 9999 FEW030 BKN140 14/03 Q1026 BECMG 08006KT
Conditions at: RJTT (TOKYO INTL AIRPO, JP) observed 1230 UTC 17 November 2019
Temperature: 14.0°C (57°F)
Dewpoint: 3.0°C (37°F) [RH = 47%]
Pressure (altimeter): 30.30 inches Hg (1026.0 mb)
Winds: from the NNW (330 degrees) at 6 MPH (5 knots; 2.6 m/s)
Visibility: 6 or more miles (10+ km)
Ceiling: 14000 feet AGL
Clouds: few clouds at 3000 feet AGL
broken clouds at 14000 feet AGL
Weather: no significant weather observed at this time

METAR text: RJTT 171200Z 31004KT 280V350 9999 FEW030 BKN150 14/02 Q1026 BECMG 08006KT RMK 1CU030 7AC150 A3031
Conditions at: RJTT (TOKYO INTL AIRPO, JP) observed 1200 UTC 17 November 2019
Temperature: 14.0°C (57°F)
Dewpoint: 2.0°C (36°F) [RH = 44%]
Pressure (altimeter): 30.30 inches Hg (1026.0 mb)
Winds: from the NW (310 degrees) at 5 MPH (4 knots; 2.1 m/s)
Visibility: 6 or more miles (10+ km)
Ceiling: 15000 feet AGL
Clouds: few clouds at 3000 feet AGL
broken clouds at 15000 feet AGL
Weather: no significant weather observed at this time

METAR text: RJTT 171130Z 31005KT 280V350 9999 FEW030 SCT150 BKN/// 13/02 Q1025 BECMG 08006KT RMK 1CU030 4AC150 A3029
Conditions at: RJTT (TOKYO INTL AIRPO, JP) observed 1130 UTC 17 November 2019
Temperature: 13.0°C (55°F)
Dewpoint: 2.0°C (36°F) [RH = 47%]
Pressure (altimeter): 30.27 inches Hg (1025.0 mb)
Winds: from the NW (310 degrees) at 6 MPH (5 knots; 2.6 m/s)
Visibility: 6 or more miles (10+ km)
Ceiling: at least 12,000 feet AGL
Clouds: few clouds at 3000 feet AGL
scattered clouds at 15000 feet AGL
Weather: no significant weather observed at this time

METAR text: RJTT 171100Z 36004KT 320V050 9999 FEW030 BKN/// 15/01 Q1025 BECMG 08006KT RMK 1CU030 A3028
Conditions at: RJTT (TOKYO INTL AIRPO, JP) observed 1100 UTC 17 November 2019
Temperature: 15.0°C (59°F)
Dewpoint: 1.0°C (34°F) [RH = 39%]
Pressure (altimeter): 30.27 inches Hg (1025.0 mb)
Winds: from the N (360 degrees) at 5 MPH (4 knots; 2.1 m/s)
Visibility: 6 or more miles (10+ km)
Ceiling: at least 12,000 feet AGL
Clouds: few clouds at 3000 feet AGL
Weather: no significant weather observed at this time

METAR text: RJTT 171030Z 34005KT 9999 FEW030 SCT150 BKN/// 14/02 Q1025 BECMG 08006KT RMK 1CU030 3AC150 A3028
Conditions at: RJTT (TOKYO INTL AIRPO, JP) observed 1030 UTC 17 November 2019
Temperature: 14.0°C (57°F)
Dewpoint: 2.0°C (36°F) [RH = 44%]
Pressure (altimeter): 30.27 inches Hg (1025.0 mb)
Winds: from the NNW (340 degrees) at 6 MPH (5 knots; 2.6 m/s)
Visibility: 6 or more miles (10+ km)
Ceiling: at least 12,000 feet AGL
Clouds: few clouds at 3000 feet AGL
scattered clouds at 15000 feet AGL
Weather: no significant weather observed at this time

METAR text: RJTT 171000Z 32005KT 9999 FEW030 SCT150 BKN/// 15/02 Q1025 NOSIG RMK 1CU030 3AC150 A3028
Conditions at: RJTT (TOKYO INTL AIRPO, JP) observed 1000 UTC 17 November 2019
Temperature: 15.0°C (59°F)
Dewpoint: 2.0°C (36°F) [RH = 41%]
Pressure (altimeter): 30.27 inches Hg (1025.0 mb)
Winds: from the NW (320 degrees) at 6 MPH (5 knots; 2.6 m/s)
Visibility: 6 or more miles (10+ km)
Ceiling: at least 12,000 feet AGL
Clouds: few clouds at 3000 feet AGL
scattered clouds at 15000 feet AGL
Weather: no significant weather observed at this time

METAR text: RJTT 170930Z 35007KT 9999 FEW030 BKN150 BKN/// 14/02 Q1025 NOSIG
Conditions at: RJTT (TOKYO INTL AIRPO, JP) observed 0930 UTC 17 November 2019
Temperature: 14.0°C (57°F)
Dewpoint: 2.0°C (36°F) [RH = 44%]
Pressure (altimeter): 30.27 inches Hg (1025.0 mb)
Winds: from the N (350 degrees) at 8 MPH (7 knots; 3.6 m/s)
Visibility: 6 or more miles (10+ km)
Ceiling: 15000 feet AGL
Clouds: few clouds at 3000 feet AGL
broken clouds at 15000 feet AGL
Weather: no significant weather observed at this time

METAR text: RJTT 170900Z 34007KT 9999 FEW030 BKN150 BKN/// 14/02 Q1025 NOSIG RMK 1CU030 5AC150 A3027
Conditions at: RJTT (TOKYO INTL AIRPO, JP) observed 0900 UTC 17 November 2019
Temperature: 14.0°C (57°F)
Dewpoint: 2.0°C (36°F) [RH = 44%]
Pressure (altimeter): 30.27 inches Hg (1025.0 mb)
Winds: from the NNW (340 degrees) at 8 MPH (7 knots; 3.6 m/s)
Visibility: 6 or more miles (10+ km)
Ceiling: 15000 feet AGL
Clouds: few clouds at 3000 feet AGL
broken clouds at 15000 feet AGL
Weather: no significant weather observed at this time

METAR text: RJTT 170830Z 33008KT 9999 FEW030 SCT150 BKN/// 14/02 Q1024 NOSIG RMK 1CU030 3AC150 A3026
Conditions at: RJTT (TOKYO INTL AIRPO, JP) observed 0830 UTC 17 November 2019
Temperature: 14.0°C (57°F)
Dewpoint: 2.0°C (36°F) [RH = 44%]
Pressure (altimeter): 30.24 inches Hg (1024.0 mb)
Winds: from the NNW (330 degrees) at 9 MPH (8 knots; 4.1 m/s)
Visibility: 6 or more miles (10+ km)
Ceiling: at least 12,000 feet AGL
Clouds: few clouds at 3000 feet AGL
scattered clouds at 15000 feet AGL
Weather: no significant weather observed at this time

METAR text: RJTT 170800Z 33009KT 9999 FEW030 BKN/// 15/03 Q1023 NOSIG RMK 1CU030 A3023
Conditions at: RJTT (TOKYO INTL AIRPO, JP) observed 0800 UTC 17 November 2019
Temperature: 15.0°C (59°F)
Dewpoint: 3.0°C (37°F) [RH = 44%]
Pressure (altimeter): 30.21 inches Hg (1023.0 mb)
Winds: from the NNW (330 degrees) at 10 MPH (9 knots; 4.6 m/s)
Visibility: 6 or more miles (10+ km)
Ceiling: at least 12,000 feet AGL
Clouds: few clouds at 3000 feet AGL
Weather: no significant weather observed at this time

METAR text: RJTT 170730Z 34009KT 9999 FEW030 BKN/// 15/04 Q1023 NOSIG RMK 1CU030 A3021
Conditions at: RJTT (TOKYO INTL AIRPO, JP) observed 0730 UTC 17 November 2019
Temperature: 15.0°C (59°F)
Dewpoint: 4.0°C (39°F) [RH = 48%]
Pressure (altimeter): 30.21 inches Hg (1023.0 mb)
Winds: from the NNW (340 degrees) at 10 MPH (9 knots; 4.6 m/s)
Visibility: 6 or more miles (10+ km)
Ceiling: at least 12,000 feet AGL
Clouds: few clouds at 3000 feet AGL
Weather: no significant weather observed at this time

METAR text: RJTT 170700Z 35010KT 9999 FEW030 17/04 Q1022 NOSIG RMK 1CU030 A3021
Conditions at: RJTT (TOKYO INTL AIRPO, JP) observed 0700 UTC 17 November 2019
Temperature: 17.0°C (63°F)
Dewpoint: 4.0°C (39°F) [RH = 42%]
Pressure (altimeter): 30.18 inches Hg (1022.0 mb)
Winds: from the N (350 degrees) at 12 MPH (10 knots; 5.1 m/s)
Visibility: 6 or more miles (10+ km)
Ceiling: at least 12,000 feet AGL
Clouds: few clouds at 3000 feet AGL
Weather: no significant weather observed at this time

METAR text: RJTT 170630Z 32012KT 9999 FEW030 SCT/// 18/04 Q1022 NOSIG
Conditions at: RJTT (TOKYO INTL AIRPO, JP) observed 0630 UTC 17 November 2019
Temperature: 18.0°C (64°F)
Dewpoint: 4.0°C (39°F) [RH = 39%]
Pressure (altimeter): 30.18 inches Hg (1022.0 mb)
Winds: from the NW (320 degrees) at 14 MPH (12 knots; 6.2 m/s)
Visibility: 6 or more miles (10+ km)
Ceiling: at least 12,000 feet AGL
Clouds: few clouds at 3000 feet AGL
Weather: no significant weather observed at this time

METAR text: RJTT 170600Z 35011KT 9999 FEW030 SCT/// 18/04 Q1021 NOSIG RMK 1CU030 A3016
Conditions at: RJTT (TOKYO INTL AIRPO, JP) observed 0600 UTC 17 November 2019
Temperature: 18.0°C (64°F)
Dewpoint: 4.0°C (39°F) [RH = 39%]
Pressure (altimeter): 30.15 inches Hg (1021.0 mb)
Winds: from the N (350 degrees) at 13 MPH (11 knots; 5.7 m/s)
Visibility: 6 or more miles (10+ km)
Ceiling: at least 12,000 feet AGL
Clouds: few clouds at 3000 feet AGL
Weather: no significant weather observed at this time

METAR text: RJTT 170530Z 35011KT 9999 FEW030 BKN/// 19/05 Q1020 NOSIG RMK 1CU030 A3014
Conditions at: RJTT (TOKYO INTL AIRPO, JP) observed 0530 UTC 17 November 2019
Temperature: 19.0°C (66°F)
Dewpoint: 5.0°C (41°F) [RH = 40%]
Pressure (altimeter): 30.12 inches Hg (1020.0 mb)
Winds: from the N (350 degrees) at 13 MPH (11 knots; 5.7 m/s)
Visibility: 6 or more miles (10+ km)
Ceiling: at least 12,000 feet AGL
Clouds: few clouds at 3000 feet AGL
Weather: no significant weather observed at this time

METAR text: RJTT 170500Z 35011KT 9999 FEW030 SCT/// 19/07 Q1020 NOSIG RMK 1CU030 A3014
Conditions at: RJTT (TOKYO INTL AIRPO, JP) observed 0500 UTC 17 November 2019
Temperature: 19.0°C (66°F)
Dewpoint: 7.0°C (45°F) [RH = 46%]
Pressure (altimeter): 30.12 inches Hg (1020.0 mb)
Winds: from the N (350 degrees) at 13 MPH (11 knots; 5.7 m/s)
Visibility: 6 or more miles (10+ km)
Ceiling: at least 12,000 feet AGL
Clouds: few clouds at 3000 feet AGL
Weather: no significant weather observed at this time

METAR text: RJTT 170430Z 34014KT 9999 FEW030 SCT/// 19/04 Q1020 NOSIG RMK 1CU030 A3013
Conditions at: RJTT (TOKYO INTL AIRPO, JP) observed 0430 UTC 17 November 2019
Temperature: 19.0°C (66°F)
Dewpoint: 4.0°C (39°F) [RH = 37%]
Pressure (altimeter): 30.12 inches Hg (1020.0 mb)
Winds: from the NNW (340 degrees) at 16 MPH (14 knots; 7.2 m/s)
Visibility: 6 or more miles (10+ km)
Ceiling: at least 12,000 feet AGL
Clouds: few clouds at 3000 feet AGL
Weather: no significant weather observed at this time

METAR text: RJTT 170400Z 35012KT 9999 FEW030 19/05 Q1020 NOSIG RMK 1CU030 A3013
Conditions at: RJTT (TOKYO INTL AIRPO, JP) observed 0400 UTC 17 November 2019
Temperature: 19.0°C (66°F)
Dewpoint: 5.0°C (41°F) [RH = 40%]
Pressure (altimeter): 30.12 inches Hg (1020.0 mb)
Winds: from the N (350 degrees) at 14 MPH (12 knots; 6.2 m/s)
Visibility: 6 or more miles (10+ km)
Ceiling: at least 12,000 feet AGL
Clouds: few clouds at 3000 feet AGL
Weather: no significant weather observed at this time

METAR text: RJTT 170330Z 35012KT 9999 FEW030 19/04 Q1020 NOSIG RMK 1CU030 A3013
Conditions at: RJTT (TOKYO INTL AIRPO, JP) observed 0330 UTC 17 November 2019
Temperature: 19.0°C (66°F)
Dewpoint: 4.0°C (39°F) [RH = 37%]
Pressure (altimeter): 30.12 inches Hg (1020.0 mb)
Winds: from the N (350 degrees) at 14 MPH (12 knots; 6.2 m/s)
Visibility: 6 or more miles (10+ km)
Ceiling: at least 12,000 feet AGL
Clouds: few clouds at 3000 feet AGL
Weather: no significant weather observed at this time

METAR text: RJTT 170300Z 34012KT 9999 FEW030 SCT/// 19/04 Q1020 NOSIG RMK 1CU030 A3012
Conditions at: RJTT (TOKYO INTL AIRPO, JP) observed 0300 UTC 17 November 2019
Temperature: 19.0°C (66°F)
Dewpoint: 4.0°C (39°F) [RH = 37%]
Pressure (altimeter): 30.12 inches Hg (1020.0 mb)
Winds: from the NNW (340 degrees) at 14 MPH (12 knots; 6.2 m/s)
Visibility: 6 or more miles (10+ km)
Ceiling: at least 12,000 feet AGL
Clouds: few clouds at 3000 feet AGL
Weather: no significant weather observed at this time

METAR text: RJTT 170230Z 34013KT 9999 FEW030 BKN/// 19/02 Q1020 NOSIG RMK 1CU030 A3013
Conditions at: RJTT (TOKYO INTL AIRPO, JP) observed 0230 UTC 17 November 2019
Temperature: 19.0°C (66°F)
Dewpoint: 2.0°C (36°F) [RH = 32%]
Pressure (altimeter): 30.12 inches Hg (1020.0 mb)
Winds: from the NNW (340 degrees) at 15 MPH (13 knots; 6.7 m/s)
Visibility: 6 or more miles (10+ km)
Ceiling: at least 12,000 feet AGL
Clouds: few clouds at 3000 feet AGL
Weather: no significant weather observed at this time

METAR text: RJTT 170200Z 35017KT 9999 FEW030 BKN/// 18/03 Q1020 NOSIG
Conditions at: RJTT (TOKYO INTL AIRPO, JP) observed 0200 UTC 17 November 2019
Temperature: 18.0°C (64°F)
Dewpoint: 3.0°C (37°F) [RH = 37%]
Pressure (altimeter): 30.12 inches Hg (1020.0 mb)
Winds: from the N (350 degrees) at 20 MPH (17 knots; 8.7 m/s)
Visibility: 6 or more miles (10+ km)
Ceiling: at least 12,000 feet AGL
Clouds: few clouds at 3000 feet AGL
Weather: no significant weather observed at this time

METAR text: RJTT 170130Z 34013KT 9999 FEW030 BKN/// 19/03 Q1020 NOSIG RMK 1CU030 A3014
Conditions at: RJTT (TOKYO INTL AIRPO, JP) observed 0130 UTC 17 November 2019
Temperature: 19.0°C (66°F)
Dewpoint: 3.0°C (37°F) [RH = 34%]
Pressure (altimeter): 30.12 inches Hg (1020.0 mb)
Winds: from the NNW (340 degrees) at 15 MPH (13 knots; 6.7 m/s)
Visibility: 6 or more miles (10+ km)
Ceiling: at least 12,000 feet AGL
Clouds: few clouds at 3000 feet AGL
Weather: no significant weather observed at this time

METAR text: RJTT 170100Z 34004KT 290V030 9999 FEW030 BKN/// 18/04 Q1021 NOSIG RMK 1CU030 A3015
Conditions at: RJTT (TOKYO INTL AIRPO, JP) observed 0100 UTC 17 November 2019
Temperature: 18.0°C (64°F)
Dewpoint: 4.0°C (39°F) [RH = 39%]
Pressure (altimeter): 30.15 inches Hg (1021.0 mb)
Winds: from the NNW (340 degrees) at 5 MPH (4 knots; 2.1 m/s)
Visibility: 6 or more miles (10+ km)
Ceiling: at least 12,000 feet AGL
Clouds: few clouds at 3000 feet AGL
Weather: no significant weather observed at this time

METAR text: RJTT 170030Z 35006KT 320V040 9999 FEW030 BKN/// 16/04 Q1020 NOSIG RMK 1CU030 A3015
Conditions at: RJTT (TOKYO INTL AIRPO, JP) observed 0030 UTC 17 November 2019
Temperature: 16.0°C (61°F)
Dewpoint: 4.0°C (39°F) [RH = 45%]
Pressure (altimeter): 30.12 inches Hg (1020.0 mb)
Winds: from the N (350 degrees) at 7 MPH (6 knots; 3.1 m/s)
Visibility: 6 or more miles (10+ km)
Ceiling: at least 12,000 feet AGL
Clouds: few clouds at 3000 feet AGL
Weather: no significant weather observed at this time

METAR text: RJTT 170000Z 01010KT 9999 FEW030 16/05 Q1020 NOSIG RMK 1CU030 A3014
Conditions at: RJTT (TOKYO INTL AIRPO, JP) observed 0000 UTC 17 November 2019
Temperature: 16.0°C (61°F)
Dewpoint: 5.0°C (41°F) [RH = 48%]
Pressure (altimeter): 30.12 inches Hg (1020.0 mb)
Winds: from the N (10 degrees) at 12 MPH (10 knots; 5.1 m/s)
Visibility: 6 or more miles (10+ km)
Ceiling: at least 12,000 feet AGL
Clouds: few clouds at 3000 feet AGL
Weather: no significant weather observed at this time

METAR text: RJTT 162330Z 35011KT 9999 FEW030 15/05 Q1021 NOSIG RMK 1CU030 A3015
Conditions at: RJTT (TOKYO INTL AIRPO, JP) observed 2330 UTC 16 November 2019
Temperature: 15.0°C (59°F)
Dewpoint: 5.0°C (41°F) [RH = 51%]
Pressure (altimeter): 30.15 inches Hg (1021.0 mb)
Winds: from the N (350 degrees) at 13 MPH (11 knots; 5.7 m/s)
Visibility: 6 or more miles (10+ km)
Ceiling: at least 12,000 feet AGL
Clouds: few clouds at 3000 feet AGL
Weather: no significant weather observed at this time

METAR text: RJTT 162300Z 02009KT 9999 FEW030 14/07 Q1020 NOSIG RMK 1CU030 A3013
Conditions at: RJTT (TOKYO INTL AIRPO, JP) observed 2300 UTC 16 November 2019
Temperature: 14.0°C (57°F)
Dewpoint: 7.0°C (45°F) [RH = 63%]
Pressure (altimeter): 30.12 inches Hg (1020.0 mb)
Winds: from the NNE (20 degrees) at 10 MPH (9 knots; 4.6 m/s)
Visibility: 6 or more miles (10+ km)
Ceiling: at least 12,000 feet AGL
Clouds: few clouds at 3000 feet AGL
Weather: no significant weather observed at this time

METAR text: RJTT 162230Z 02009KT 9999 FEW030 14/07 Q1020 NOSIG RMK 1CU030 A3012
Conditions at: RJTT (TOKYO INTL AIRPO, JP) observed 2230 UTC 16 November 2019
Temperature: 14.0°C (57°F)
Dewpoint: 7.0°C (45°F) [RH = 63%]
Pressure (altimeter): 30.12 inches Hg (1020.0 mb)
Winds: from the NNE (20 degrees) at 10 MPH (9 knots; 4.6 m/s)
Visibility: 6 or more miles (10+ km)
Ceiling: at least 12,000 feet AGL
Clouds: few clouds at 3000 feet AGL
Weather: no significant weather observed at this time

METAR text: RJTT 162200Z 03011KT 9999 FEW030 14/07 Q1019 NOSIG RMK 1CU030 A3011
Conditions at: RJTT (TOKYO INTL AIRPO, JP) observed 2200 UTC 16 November 2019
Temperature: 14.0°C (57°F)
Dewpoint: 7.0°C (45°F) [RH = 63%]
Pressure (altimeter): 30.09 inches Hg (1019.0 mb)
Winds: from the NNE (30 degrees) at 13 MPH (11 knots; 5.7 m/s)
Visibility: 6 or more miles (10+ km)
Ceiling: at least 12,000 feet AGL
Clouds: few clouds at 3000 feet AGL
Weather: no significant weather observed at this time

METAR text: RJTT 162130Z 02008KT 9999 FEW030 14/06 Q1019 NOSIG RMK 1CU030 A3011
Conditions at: RJTT (TOKYO INTL AIRPO, JP) observed 2130 UTC 16 November 2019
Temperature: 14.0°C (57°F)
Dewpoint: 6.0°C (43°F) [RH = 58%]
Pressure (altimeter): 30.09 inches Hg (1019.0 mb)
Winds: from the NNE (20 degrees) at 9 MPH (8 knots; 4.1 m/s)
Visibility: 6 or more miles (10+ km)
Ceiling: at least 12,000 feet AGL
Clouds: few clouds at 3000 feet AGL
Weather: no significant weather observed at this time

METAR text: RJTT 162100Z 02007KT 9999 FEW030 13/07 Q1019 NOSIG RMK 1CU030 A3010
Conditions at: RJTT (TOKYO INTL AIRPO, JP) observed 2100 UTC 16 November 2019
Temperature: 13.0°C (55°F)
Dewpoint: 7.0°C (45°F) [RH = 67%]
Pressure (altimeter): 30.09 inches Hg (1019.0 mb)
Winds: from the NNE (20 degrees) at 8 MPH (7 knots; 3.6 m/s)
Visibility: 6 or more miles (10+ km)
Ceiling: at least 12,000 feet AGL
Clouds: few clouds at 3000 feet AGL
Weather: no significant weather observed at this time

METAR text: RJTT 162030Z 32006KT CAVOK 11/06 Q1019 NOSIG RMK A3010
Conditions at: RJTT (TOKYO INTL AIRPO, JP) observed 2030 UTC 16 November 2019
Temperature: 11.0°C (52°F)
Dewpoint: 6.0°C (43°F) [RH = 71%]
Pressure (altimeter): 30.09 inches Hg (1019.0 mb)
Winds: from the NW (320 degrees) at 7 MPH (6 knots; 3.1 m/s)
Visibility: 6 or more miles (10+ km)
Ceiling: ceiling and visibility are OK
Clouds: unknown
Weather: no significant weather observed at this time

METAR text: RJTT 162000Z 28003KT CAVOK 12/07 Q1018 NOSIG RMK A3008
Conditions at: RJTT (TOKYO INTL AIRPO, JP) observed 2000 UTC 16 November 2019
Temperature: 12.0°C (54°F)
Dewpoint: 7.0°C (45°F) [RH = 71%]
Pressure (altimeter): 30.06 inches Hg (1018.0 mb)
Winds: from the W (280 degrees) at 3 MPH (3 knots; 1.5 m/s)
Visibility: 6 or more miles (10+ km)
Ceiling: ceiling and visibility are OK
Clouds: unknown
Weather: no significant weather observed at this time

METAR text: RJTT 161930Z 01006KT 9999 FEW030 11/07 Q1018 NOSIG RMK 1CU030 A3008
Conditions at: RJTT (TOKYO INTL AIRPO, JP) observed 1930 UTC 16 November 2019
Temperature: 11.0°C (52°F)
Dewpoint: 7.0°C (45°F) [RH = 76%]
Pressure (altimeter): 30.06 inches Hg (1018.0 mb)
Winds: from the N (10 degrees) at 7 MPH (6 knots; 3.1 m/s)
Visibility: 6 or more miles (10+ km)
Ceiling: at least 12,000 feet AGL
Clouds: few clouds at 3000 feet AGL
Weather: no significant weather observed at this time

METAR text: RJTT 161900Z 02007KT 9999 FEW030 13/08 Q1018 NOSIG RMK 1CU030 A3006
Conditions at: RJTT (TOKYO INTL AIRPO, JP) observed 1900 UTC 16 November 2019
Temperature: 13.0°C (55°F)
Dewpoint: 8.0°C (46°F) [RH = 72%]
Pressure (altimeter): 30.06 inches Hg (1018.0 mb)
Winds: from the NNE (20 degrees) at 8 MPH (7 knots; 3.6 m/s)
Visibility: 6 or more miles (10+ km)
Ceiling: at least 12,000 feet AGL
Clouds: few clouds at 3000 feet AGL
Weather: no significant weather observed at this time

METAR text: RJTT 161830Z 01011KT 9999 FEW030 13/09 Q1018 NOSIG RMK 1CU030 A3007
Conditions at: RJTT (TOKYO INTL AIRPO, JP) observed 1830 UTC 16 November 2019
Temperature: 13.0°C (55°F)
Dewpoint: 9.0°C (48°F) [RH = 77%]
Pressure (altimeter): 30.06 inches Hg (1018.0 mb)
Winds: from the N (10 degrees) at 13 MPH (11 knots; 5.7 m/s)
Visibility: 6 or more miles (10+ km)
Ceiling: at least 12,000 feet AGL
Clouds: few clouds at 3000 feet AGL
Weather: no significant weather observed at this time

METAR text: RJTT 161800Z 34008KT 9999 FEW030 13/08 Q1017 NOSIG RMK 1CU030 A3005
Conditions at: RJTT (TOKYO INTL AIRPO, JP) observed 1800 UTC 16 November 2019
Temperature: 13.0°C (55°F)
Dewpoint: 8.0°C (46°F) [RH = 72%]
Pressure (altimeter): 30.03 inches Hg (1017.0 mb)
Winds: from the NNW (340 degrees) at 9 MPH (8 knots; 4.1 m/s)
Visibility: 6 or more miles (10+ km)
Ceiling: at least 12,000 feet AGL
Clouds: few clouds at 3000 feet AGL
Weather: no significant weather observed at this time

METAR text: RJTT 161730Z 35011KT 9999 FEW030 13/08 Q1018 NOSIG RMK 1CU030 A3006
Conditions at: RJTT (TOKYO INTL AIRPO, JP) observed 1730 UTC 16 November 2019
Temperature: 13.0°C (55°F)
Dewpoint: 8.0°C (46°F) [RH = 72%]
Pressure (altimeter): 30.06 inches Hg (1018.0 mb)
Winds: from the N (350 degrees) at 13 MPH (11 knots; 5.7 m/s)
Visibility: 6 or more miles (10+ km)
Ceiling: at least 12,000 feet AGL
Clouds: few clouds at 3000 feet AGL
Weather: no significant weather observed at this time

METAR text: RJTT 161700Z 35011KT 9999 FEW030 13/09 Q1017 NOSIG RMK 1CU030 A3006
Conditions at: RJTT (TOKYO INTL AIRPO, JP) observed 1700 UTC 16 November 2019
Temperature: 13.0°C (55°F)
Dewpoint: 9.0°C (48°F) [RH = 77%]
Pressure (altimeter): 30.03 inches Hg (1017.0 mb)
Winds: from the N (350 degrees) at 13 MPH (11 knots; 5.7 m/s)
Visibility: 6 or more miles (10+ km)
Ceiling: at least 12,000 feet AGL
Clouds: few clouds at 3000 feet AGL
Weather: no significant weather observed at this time

METAR text: RJTT 161630Z 33010KT 9999 FEW030 13/09 Q1017 NOSIG RMK 1CU030 A3005
Conditions at: RJTT (TOKYO INTL AIRPO, JP) observed 1630 UTC 16 November 2019
Temperature: 13.0°C (55°F)
Dewpoint: 9.0°C (48°F) [RH = 77%]
Pressure (altimeter): 30.03 inches Hg (1017.0 mb)
Winds: from the NNW (330 degrees) at 12 MPH (10 knots; 5.1 m/s)
Visibility: 6 or more miles (10+ km)
Ceiling: at least 12,000 feet AGL
Clouds: few clouds at 3000 feet AGL
Weather: no significant weather observed at this time

METAR text: RJTT 161600Z 31009KT 9999 FEW030 12/08 Q1017 NOSIG RMK 1CU030 A3005
Conditions at: RJTT (TOKYO INTL AIRPO, JP) observed 1600 UTC 16 November 2019
Temperature: 12.0°C (54°F)
Dewpoint: 8.0°C (46°F) [RH = 76%]
Pressure (altimeter): 30.03 inches Hg (1017.0 mb)
Winds: from the NW (310 degrees) at 10 MPH (9 knots; 4.6 m/s)
Visibility: 6 or more miles (10+ km)
Ceiling: at least 12,000 feet AGL
Clouds: few clouds at 3000 feet AGL
Weather: no significant weather observed at this time

METAR text: RJTT 161530Z 30008KT 9999 FEW030 12/07 Q1017 NOSIG RMK 1CU030 A3004
Conditions at: RJTT (TOKYO INTL AIRPO, JP) observed 1530 UTC 16 November 2019
Temperature: 12.0°C (54°F)
Dewpoint: 7.0°C (45°F) [RH = 71%]
Pressure (altimeter): 30.03 inches Hg (1017.0 mb)
Winds: from the WNW (300 degrees) at 9 MPH (8 knots; 4.1 m/s)
Visibility: 6 or more miles (10+ km)
Ceiling: at least 12,000 feet AGL
Clouds: few clouds at 3000 feet AGL
Weather: no significant weather observed at this time

METAR text: RJTT 161500Z 28006KT 9999 FEW030 13/07 Q1017 NOSIG RMK 1CU030 A3004
Conditions at: RJTT (TOKYO INTL AIRPO, JP) observed 1500 UTC 16 November 2019
Temperature: 13.0°C (55°F)
Dewpoint: 7.0°C (45°F) [RH = 67%]
Pressure (altimeter): 30.03 inches Hg (1017.0 mb)
Winds: from the W (280 degrees) at 7 MPH (6 knots; 3.1 m/s)
Visibility: 6 or more miles (10+ km)
Ceiling: at least 12,000 feet AGL
Clouds: few clouds at 3000 feet AGL
Weather: no significant weather observed at this time

METAR text: RJTT 161430Z 31005KT 9999 FEW025 13/07 Q1017 NOSIG RMK 1CU025 A3004
Conditions at: RJTT (TOKYO INTL AIRPO, JP) observed 1430 UTC 16 November 2019
Temperature: 13.0°C (55°F)
Dewpoint: 7.0°C (45°F) [RH = 67%]
Pressure (altimeter): 30.03 inches Hg (1017.0 mb)
Winds: from the NW (310 degrees) at 6 MPH (5 knots; 2.6 m/s)
Visibility: 6 or more miles (10+ km)
Ceiling: at least 12,000 feet AGL
Clouds: few clouds at 2500 feet AGL
Weather: no significant weather observed at this time

METAR text: RJTT 161400Z 32007KT 9999 FEW030 13/08 Q1016 NOSIG RMK 1CU030 A3003
Conditions at: RJTT (TOKYO INTL AIRPO, JP) observed 1400 UTC 16 November 2019
Temperature: 13.0°C (55°F)
Dewpoint: 8.0°C (46°F) [RH = 72%]
Pressure (altimeter): 30.00 inches Hg (1016.0 mb)
Winds: from the NW (320 degrees) at 8 MPH (7 knots; 3.6 m/s)
Visibility: 6 or more miles (10+ km)
Ceiling: at least 12,000 feet AGL
Clouds: few clouds at 3000 feet AGL
Weather: no significant weather observed at this time

METAR text: RJTT 161330Z 29005KT 9999 FEW030 14/09 Q1016 NOSIG RMK 1CU030 A3003
Conditions at: RJTT (TOKYO INTL AIRPO, JP) observed 1330 UTC 16 November 2019
Temperature: 14.0°C (57°F)
Dewpoint: 9.0°C (48°F) [RH = 72%]
Pressure (altimeter): 30.00 inches Hg (1016.0 mb)
Winds: from the WNW (290 degrees) at 6 MPH (5 knots; 2.6 m/s)
Visibility: 6 or more miles (10+ km)
Ceiling: at least 12,000 feet AGL
Clouds: few clouds at 3000 feet AGL
Weather: no significant weather observed at this time

METAR text: RJTT 161300Z 21004KT 170V280 9999 FEW035 14/10 Q1016 BECMG TL1330 30005KT RMK 1CU035 A3002
Conditions at: RJTT (TOKYO INTL AIRPO, JP) observed 1300 UTC 16 November 2019
Temperature: 14.0°C (57°F)
Dewpoint: 10.0°C (50°F) [RH = 77%]
Pressure (altimeter): 30.00 inches Hg (1016.0 mb)
Winds: from the SSW (210 degrees) at 5 MPH (4 knots; 2.1 m/s)
Visibility: 6 or more miles (10+ km)
Ceiling: at least 12,000 feet AGL
Clouds: few clouds at 3500 feet AGL
Weather: no significant weather observed at this time

METAR text: RJTT 161230Z 14005KT 9999 FEW035 14/10 Q1016 BECMG 30005KT RMK 1CU035 A3002
Conditions at: RJTT (TOKYO INTL AIRPO, JP) observed 1230 UTC 16 November 2019
Temperature: 14.0°C (57°F)
Dewpoint: 10.0°C (50°F) [RH = 77%]
Pressure (altimeter): 30.00 inches Hg (1016.0 mb)
Winds: from the SE (140 degrees) at 6 MPH (5 knots; 2.6 m/s)
Visibility: 6 or more miles (10+ km)
Ceiling: at least 12,000 feet AGL
Clouds: few clouds at 3500 feet AGL
Weather: no significant weather observed at this time

METAR text: RJTT 161200Z 14006KT 9999 FEW035 15/10 Q1016 BECMG 30005KT RMK 1CU035 A3002
Conditions at: RJTT (TOKYO INTL AIRPO, JP) observed 1200 UTC 16 November 2019
Temperature: 15.0°C (59°F)
Dewpoint: 10.0°C (50°F) [RH = 72%]
Pressure (altimeter): 30.00 inches Hg (1016.0 mb)
Winds: from the SE (140 degrees) at 7 MPH (6 knots; 3.1 m/s)
Visibility: 6 or more miles (10+ km)
Ceiling: at least 12,000 feet AGL
Clouds: few clouds at 3500 feet AGL
Weather: no significant weather observed at this time

METAR text: RJTT 161130Z 14007KT 9999 FEW035 15/10 Q1016 BECMG 30005KT RMK 1CU035 A3001
Conditions at: RJTT (TOKYO INTL AIRPO, JP) observed 1130 UTC 16 November 2019
Temperature: 15.0°C (59°F)
Dewpoint: 10.0°C (50°F) [RH = 72%]
Pressure (altimeter): 30.00 inches Hg (1016.0 mb)
Winds: from the SE (140 degrees) at 8 MPH (7 knots; 3.6 m/s)
Visibility: 6 or more miles (10+ km)
Ceiling: at least 12,000 feet AGL
Clouds: few clouds at 3500 feet AGL
Weather: no significant weather observed at this time

METAR text: RJTT 161100Z 13009KT 9999 FEW030 16/10 Q1016 BECMG 30005KT RMK 1CU030 A3001
Conditions at: RJTT (TOKYO INTL AIRPO, JP) observed 1100 UTC 16 November 2019
Temperature: 16.0°C (61°F)
Dewpoint: 10.0°C (50°F) [RH = 68%]
Pressure (altimeter): 30.00 inches Hg (1016.0 mb)
Winds: from the SE (130 degrees) at 10 MPH (9 knots; 4.6 m/s)
Visibility: 6 or more miles (10+ km)
Ceiling: at least 12,000 feet AGL
Clouds: few clouds at 3000 feet AGL
Weather: no significant weather observed at this time

METAR text: RJTT 161030Z 14007KT 9999 FEW025 15/09 Q1016 NOSIG RMK 1CU025 A3001
Conditions at: RJTT (TOKYO INTL AIRPO, JP) observed 1030 UTC 16 November 2019
Temperature: 15.0°C (59°F)
Dewpoint: 9.0°C (48°F) [RH = 67%]
Pressure (altimeter): 30.00 inches Hg (1016.0 mb)
Winds: from the SE (140 degrees) at 8 MPH (7 knots; 3.6 m/s)
Visibility: 6 or more miles (10+ km)
Ceiling: at least 12,000 feet AGL
Clouds: few clouds at 2500 feet AGL
Weather: no significant weather observed at this time

METAR text: RJTT 161000Z 14006KT 9999 FEW030 16/10 Q1016 NOSIG RMK 1CU030 A3002
Conditions at: RJTT (TOKYO INTL AIRPO, JP) observed 1000 UTC 16 November 2019
Temperature: 16.0°C (61°F)
Dewpoint: 10.0°C (50°F) [RH = 68%]
Pressure (altimeter): 30.00 inches Hg (1016.0 mb)
Winds: from the SE (140 degrees) at 7 MPH (6 knots; 3.1 m/s)
Visibility: 6 or more miles (10+ km)
Ceiling: at least 12,000 feet AGL
Clouds: few clouds at 3000 feet AGL
Weather: no significant weather observed at this time

METAR text: RJTT 160930Z 19005KT 9999 FEW030 17/08 Q1016 NOSIG RMK 1CU030 A3002
Conditions at: RJTT (TOKYO INTL AIRPO, JP) observed 0930 UTC 16 November 2019
Temperature: 17.0°C (63°F)
Dewpoint: 8.0°C (46°F) [RH = 55%]
Pressure (altimeter): 30.00 inches Hg (1016.0 mb)
Winds: from the S (190 degrees) at 6 MPH (5 knots; 2.6 m/s)
Visibility: 6 or more miles (10+ km)
Ceiling: at least 12,000 feet AGL
Clouds: few clouds at 3000 feet AGL
Weather: no significant weather observed at this time

METAR text: RJTT 160900Z 19006KT 9999 FEW030 BKN/// 18/07 Q1016 NOSIG RMK 1CU030 A3001
Conditions at: RJTT (TOKYO INTL AIRPO, JP) observed 0900 UTC 16 November 2019
Temperature: 18.0°C (64°F)
Dewpoint: 7.0°C (45°F) [RH = 49%]
Pressure (altimeter): 30.00 inches Hg (1016.0 mb)
Winds: from the S (190 degrees) at 7 MPH (6 knots; 3.1 m/s)
Visibility: 6 or more miles (10+ km)
Ceiling: at least 12,000 feet AGL
Clouds: few clouds at 3000 feet AGL
Weather: no significant weather observed at this time

METAR text: RJTT 160830Z 19005KT 120V270 9999 FEW030 SCT/// 16/08 Q1016 NOSIG RMK 1CU030 A3001
Conditions at: RJTT (TOKYO INTL AIRPO, JP) observed 0830 UTC 16 November 2019
Temperature: 16.0°C (61°F)
Dewpoint: 8.0°C (46°F) [RH = 59%]
Pressure (altimeter): 30.00 inches Hg (1016.0 mb)
Winds: from the S (190 degrees) at 6 MPH (5 knots; 2.6 m/s)
Visibility: 6 or more miles (10+ km)
Ceiling: at least 12,000 feet AGL
Clouds: few clouds at 3000 feet AGL
Weather: no significant weather observed at this time

Forecast for: RJTT (TOKYO INTL AIRPO, JP)
Text: TAF RJTT 171705Z 1718/1900 35005KT 9999 FEW020 BKN040
Forecast period: 1800 UTC 17 November 2019 to 0100 UTC 18 November 2019
Forecast type: FROM: standard forecast or significant change
Winds: from the N (350 degrees) at 6 MPH (5 knots; 2.6 m/s)
Visibility: 6 or more miles 10+ km)
Ceiling: 4000 feet AGL
Clouds: few clouds at 2000 feet AGL
broken clouds at 4000 feet AGL
Weather: no significant weather forecast for this period
Text: BECMG 1801/1803 15005KT
Forecast period: 0100 to 0300 UTC 18 November 2019
Forecast type: BECOMING: Conditions expected to become as follows by 0300 UTC 18 November 2019
Winds: from the SSE (150 degrees) at 6 MPH (5 knots; 2.6 m/s)
Visibility: 6 or more miles 10+ km)
Ceiling: 4000 feet AGL
Clouds: few clouds at 2000 feet AGL
broken clouds at 4000 feet AGL
Weather: no significant weather forecast for this period
Text: BECMG 1803/1805 21025G35KT
Forecast period: 0300 to 1500 UTC 18 November 2019
Forecast type: BECOMING: Conditions expected to become as follows by 0500 UTC 18 November 2019
Winds: from the SSW (210 degrees) at 29 MPH (25 knots; 12.9 m/s)
gusting to 40 MPH (35 knots; 18.0 m/s)
Visibility: 6 or more miles 10+ km)
Ceiling: 4000 feet AGL
Clouds: few clouds at 2000 feet AGL
broken clouds at 4000 feet AGL
Weather: no significant weather forecast for this period
Text: TEMPO 1815/1818 4000 SHRA BR
Forecast period: 1500 to 1800 UTC 18 November 2019
Forecast type: TEMPORARY: The following changes expected for less than half the time period
Visibility: 2.49 miles (4.01 km)
Ceiling: unknown
Clouds: missing
Weather: SHRA BR  (rain showers, mist)
Text: BECMG 1815/1818 35012KT
Forecast period: 1500 UTC 18 November 2019 to 0000 UTC 19 November 2019
Forecast type: BECOMING: Conditions expected to become as follows by 1800 UTC 18 November 2019
Winds: from the N (350 degrees) at 14 MPH (12 knots; 6.2 m/s)
Visibility: 6 or more miles 10+ km)
Ceiling: 4000 feet AGL
Clouds: few clouds at 2000 feet AGL
broken clouds at 4000 feet AGL
Weather: no significant weather forecast for this period